Time;durP1;ratioP1;P1;durP2;ratioP2;P2;SDS_P1;SDS_P2;PMS_P1;PMS_P2;Temp;Humidity;BMP_temperature;BMP_pressure;BME280_temperature;BME280_humidity;BME280_pressure;Samples;Min_cycle;Max_cycle;Signal;HPM_P1;HPM_P2
2021/08/18 00:00:22;;;;;;;13.05;7.07;;;29.30;99.90;;;;;;4160109;28;20148;-65
2021/08/18 00:02:27;;;;;;;13.73;7.20;;;29.30;99.90;;;;;;4162815;28;20116;-65
2021/08/18 00:04:32;;;;;;;14.57;6.97;;;29.40;99.90;;;;;;4163255;28;20088;-65
2021/08/18 00:06:36;;;;;;;13.07;6.82;;;29.40;99.90;;;;;;4162330;28;20068;-65
2021/08/18 00:08:41;;;;;;;20.20;6.32;;;29.40;99.90;;;;;;4154476;28;20054;-66
2021/08/18 00:10:45;;;;;;;16.75;7.13;;;29.50;99.90;;;;;;4147232;28;20518;-66
2021/08/18 00:12:50;;;;;;;12.38;6.50;;;29.50;99.90;;;;;;4155026;28;20551;-66
2021/08/18 00:14:55;;;;;;;11.98;6.18;;;29.50;99.90;;;;;;4164990;28;20049;-65
2021/08/18 00:17:01;;;;;;;10.95;5.70;;;29.60;99.90;;;;;;4165560;28;20044;-66
2021/08/18 00:19:06;;;;;;;11.95;5.97;;;29.60;99.90;;;;;;4159398;28;20085;-67
2021/08/18 00:21:11;;;;;;;13.77;5.45;;;29.70;99.90;;;;;;4141481;28;20338;-66
2021/08/18 00:23:16;;;;;;;9.02;4.63;;;29.70;99.90;;;;;;4156828;28;20064;-67
2021/08/18 00:25:21;;;;;;;9.18;5.63;;;29.70;99.90;;;;;;4156529;28;20057;-67
2021/08/18 00:27:26;;;;;;;8.40;5.35;;;29.80;99.90;;;;;;4160152;28;20049;-66
2021/08/18 00:29:30;;;;;;;8.80;4.90;;;29.90;99.90;;;;;;4156132;28;20060;-68
2021/08/18 00:31:35;;;;;;;7.55;5.63;;;29.90;99.90;;;;;;4156837;28;20681;-66
2021/08/18 00:33:39;;;;;;;10.77;5.35;;;29.90;99.90;;;;;;4157881;28;20569;-66
2021/08/18 00:35:44;;;;;;;12.18;5.88;;;29.90;99.90;;;;;;4158681;28;20137;-67
2021/08/18 00:37:49;;;;;;;11.57;6.00;;;30.00;99.90;;;;;;4166782;28;20515;-66
2021/08/18 00:39:53;;;;;;;9.52;5.60;;;30.00;99.90;;;;;;4159330;28;20050;-67
2021/08/18 00:41:58;;;;;;;9.23;5.47;;;30.00;99.90;;;;;;4158220;28;20065;-67
2021/08/18 00:44:05;;;;;;;10.88;5.35;;;30.00;99.90;;;;;;4165765;28;20065;-67
2021/08/18 00:46:09;;;;;;;9.55;5.28;;;30.10;99.90;;;;;;4165389;28;20049;-68
2021/08/18 00:48:13;;;;;;;9.27;5.13;;;30.20;99.90;;;;;;4158462;28;20543;-67
2021/08/18 00:50:20;;;;;;;12.35;4.85;;;30.30;99.90;;;;;;4160832;28;20049;-67
2021/08/18 00:52:24;;;;;;;9.00;4.72;;;30.40;99.90;;;;;;4157421;28;20053;-67
2021/08/18 00:54:29;;;;;;;9.80;5.22;;;30.40;99.90;;;;;;4161572;28;20059;-68
2021/08/18 00:56:33;;;;;;;9.75;5.25;;;30.50;99.90;;;;;;4156783;28;20159;-67
2021/08/18 00:58:38;;;;;;;7.80;4.10;;;30.50;99.90;;;;;;4160316;28;20153;-67
2021/08/18 01:00:42;;;;;;;7.03;3.97;;;30.60;99.90;;;;;;4157411;28;20470;-66
2021/08/18 01:02:48;;;;;;;8.70;4.40;;;30.60;99.90;;;;;;4159690;28;20041;-66
2021/08/18 01:04:54;;;;;;;9.70;4.25;;;30.60;99.90;;;;;;4157876;28;20037;-67
2021/08/18 01:06:59;;;;;;;8.70;4.25;;;30.70;99.90;;;;;;4159154;28;20050;-67
2021/08/18 01:09:04;;;;;;;5.65;3.50;;;30.80;99.90;;;;;;4156155;28;20050;-69
2021/08/18 01:11:09;;;;;;;7.50;3.33;;;30.80;99.90;;;;;;4158264;28;20073;-67
2021/08/18 01:13:14;;;;;;;4.85;3.22;;;30.90;99.90;;;;;;4161937;28;20121;-68
2021/08/18 01:15:20;;;;;;;5.78;3.20;;;30.90;99.90;;;;;;4159268;28;20057;-67
2021/08/18 01:17:29;;;;;;;7.45;3.40;;;30.90;99.60;;;;;;4179900;28;20044;-67
2021/08/18 01:19:34;;;;;;;6.30;3.58;;;30.90;99.20;;;;;;4151878;28;20382;-68
2021/08/18 01:21:39;;;;;;;5.88;3.22;;;31.00;99.20;;;;;;4167722;28;20279;-67
2021/08/18 01:23:44;;;;;;;4.75;2.92;;;31.00;99.70;;;;;;4166839;28;20065;-67
2021/08/18 01:25:49;;;;;;;5.03;3.05;;;31.10;99.30;;;;;;4160691;28;20136;-67
2021/08/18 01:27:56;;;;;;;6.30;3.90;;;31.10;98.70;;;;;;4163209;28;20105;-68
2021/08/18 01:30:00;;;;;;;8.88;3.58;;;31.10;99.00;;;;;;4167076;28;20041;-67
2021/08/18 01:32:06;;;;;;;5.40;2.63;;;31.20;98.80;;;;;;4162998;28;20046;-66
2021/08/18 01:34:11;;;;;;;4.63;2.20;;;31.20;97.60;;;;;;4161448;28;20045;-68
2021/08/18 01:36:18;;;;;;;7.63;2.72;;;31.20;96.30;;;;;;4158933;28;20408;-67
2021/08/18 01:38:23;;;;;;;7.70;2.72;;;31.30;96.50;;;;;;4158393;28;20065;-68
2021/08/18 01:40:28;;;;;;;4.47;2.22;;;31.30;96.70;;;;;;4159580;28;20081;-69
2021/08/18 01:42:32;;;;;;;4.53;2.38;;;31.40;96.40;;;;;;4159958;28;20047;-67
2021/08/18 01:44:37;;;;;;;4.82;2.55;;;31.30;96.10;;;;;;4159579;28;20107;-68
2021/08/18 01:46:42;;;;;;;4.80;2.40;;;31.40;95.30;;;;;;4158236;28;20057;-67
2021/08/18 01:48:48;;;;;;;6.03;2.33;;;31.40;95.60;;;;;;4163988;28;20083;-66
2021/08/18 01:50:54;;;;;;;5.20;2.47;;;31.50;95.20;;;;;;4161844;28;20057;-67
2021/08/18 01:52:59;;;;;;;3.65;1.92;;;31.50;95.10;;;;;;4156922;28;20058;-66
2021/08/18 01:55:05;;;;;;;4.75;2.28;;;31.60;95.00;;;;;;4167417;28;20480;-66
2021/08/18 01:57:14;;;;;;;5.07;1.73;;;31.60;94.90;;;;;;4166691;28;20245;-67
2021/08/18 01:59:19;;;;;;;7.88;1.92;;;31.60;94.20;;;;;;4163163;28;20057;-68
2021/08/18 02:01:24;;;;;;;5.10;1.80;;;31.70;94.30;;;;;;4152551;28;20041;-67
2021/08/18 02:03:30;;;;;;;7.43;2.50;;;31.70;93.50;;;;;;4155712;28;20132;-66
2021/08/18 02:05:35;;;;;;;4.78;2.42;;;31.70;93.80;;;;;;4168054;28;20647;-66
2021/08/18 02:07:40;;;;;;;7.13;2.83;;;31.80;94.20;;;;;;4142297;28;20057;-68
2021/08/18 02:09:45;;;;;;;6.30;2.92;;;31.90;94.30;;;;;;4158308;28;20042;-67
2021/08/18 02:11:49;;;;;;;5.38;2.60;;;31.90;94.40;;;;;;4159638;28;20046;-67
2021/08/18 02:13:54;;;;;;;4.20;2.40;;;32.00;93.80;;;;;;4162496;28;20445;-67
2021/08/18 02:15:59;;;;;;;4.75;2.17;;;32.00;93.70;;;;;;4161564;28;20053;-67
2021/08/18 02:18:08;;;;;;;4.40;2.17;;;32.10;93.50;;;;;;4160825;28;20089;-67
2021/08/18 02:20:16;;;;;;;7.35;2.63;;;32.10;92.40;;;;;;4160687;28;20543;-66
2021/08/18 02:22:20;;;;;;;9.77;2.40;;;32.10;92.30;;;;;;4164576;28;20044;-67
2021/08/18 02:24:25;;;;;;;5.15;2.30;;;32.20;91.80;;;;;;4164045;28;20506;-68
2021/08/18 02:26:30;;;;;;;3.05;1.60;;;32.20;92.30;;;;;;4154723;28;20120;-67
2021/08/18 02:28:34;;;;;;;4.00;1.95;;;32.20;91.50;;;;;;4163205;28;20543;-68
2021/08/18 02:30:39;;;;;;;7.00;2.20;;;32.20;91.20;;;;;;4165318;28;20045;-67
2021/08/18 02:32:44;;;;;;;5.65;2.38;;;32.30;92.50;;;;;;4161513;28;20042;-67
2021/08/18 02:34:49;;;;;;;4.68;2.80;;;32.40;92.90;;;;;;4161561;28;20072;-68
2021/08/18 02:36:53;;;;;;;7.40;2.42;;;32.40;93.00;;;;;;4162916;28;20076;-67
2021/08/18 02:38:58;;;;;;;6.80;2.40;;;32.50;93.00;;;;;;4160506;28;20416;-67
2021/08/18 02:41:03;;;;;;;5.57;2.10;;;32.60;92.90;;;;;;4161216;28;20042;-68
2021/08/18 02:43:08;;;;;;;3.83;2.08;;;32.70;93.00;;;;;;4163490;28;20233;-69
2021/08/18 02:45:13;;;;;;;5.40;2.15;;;32.70;92.00;;;;;;4163121;28;20615;-68
2021/08/18 02:47:17;;;;;;;5.38;2.10;;;32.70;91.20;;;;;;4160664;28;20282;-67
2021/08/18 02:49:24;;;;;;;4.07;2.00;;;32.80;91.20;;;;;;4162214;28;20376;-68
2021/08/18 02:51:28;;;;;;;2.40;1.50;;;32.80;91.50;;;;;;4159748;28;20084;-67
2021/08/18 02:53:33;;;;;;;3.38;1.75;;;32.90;90.70;;;;;;4157360;28;20053;-67
2021/08/18 02:55:38;;;;;;;4.22;1.77;;;32.90;90.90;;;;;;4161278;28;20060;-68
2021/08/18 02:57:46;;;;;;;3.22;1.67;;;33.00;90.70;;;;;;4166473;28;20133;-68
2021/08/18 02:59:56;;;;;;;4.85;1.95;;;33.00;89.50;;;;;;4146583;28;20046;-68
2021/08/18 03:02:01;;;;;;;6.13;1.98;;;33.00;86.80;;;;;;4168456;28;20076;-68
2021/08/18 03:04:06;;;;;;;3.42;1.60;;;33.10;87.30;;;;;;4116729;28;20057;-67
2021/08/18 03:06:10;;;;;;;2.35;1.60;;;33.10;88.00;;;;;;4169342;28;20476;-67
2021/08/18 03:08:15;;;;;;;3.85;1.92;;;33.20;89.20;;;;;;4167252;28;20050;-68
2021/08/18 03:10:20;;;;;;;4.43;1.67;;;33.30;89.80;;;;;;4161004;28;20077;-69
2021/08/18 03:12:24;;;;;;;6.38;1.92;;;33.30;90.10;;;;;;4167141;28;20361;-67
2021/08/18 03:14:29;;;;;;;5.70;1.73;;;33.30;87.10;;;;;;4166607;28;20041;-68
2021/08/18 03:16:34;;;;;;;4.35;1.90;;;33.40;88.70;;;;;;4163848;28;20049;-67
2021/08/18 03:18:38;;;;;;;3.55;2.10;;;33.40;88.80;;;;;;4161071;28;20068;-70
2021/08/18 03:20:43;;;;;;;4.80;2.17;;;33.50;85.10;;;;;;4162742;28;20041;-69
2021/08/18 03:22:48;;;;;;;4.60;1.70;;;33.50;84.90;;;;;;4167827;28;20038;-67
2021/08/18 03:24:53;;;;;;;3.63;1.58;;;33.50;86.30;;;;;;4158980;28;20041;-67
2021/08/18 03:27:00;;;;;;;17.98;2.05;;;33.60;84.80;;;;;;4158902;28;20041;-70
2021/08/18 03:29:04;;;;;;;3.25;1.75;;;33.60;83.20;;;;;;4159932;28;20050;-68
2021/08/18 03:31:09;;;;;;;4.28;1.60;;;33.60;82.70;;;;;;4160202;28;20589;-68
2021/08/18 03:33:15;;;;;;;2.92;1.65;;;33.60;81.80;;;;;;4162678;28;20108;-69
2021/08/18 03:35:19;;;;;;;3.40;1.48;;;33.70;81.40;;;;;;4161978;28;20073;-68
2021/08/18 03:37:24;;;;;;;7.03;1.40;;;33.60;82.00;;;;;;4162686;28;20041;-69
2021/08/18 03:39:29;;;;;;;4.65;1.42;;;33.50;83.30;;;;;;4161446;28;20451;-68
2021/08/18 03:41:33;;;;;;;4.25;1.73;;;33.60;82.60;;;;;;4159701;28;20050;-67
2021/08/18 03:43:40;;;;;;;2.90;1.50;;;33.70;82.00;;;;;;4161443;28;20042;-68
2021/08/18 03:45:47;;;;;;;4.25;1.58;;;33.80;82.30;;;;;;4160587;28;20052;-69
2021/08/18 03:47:52;;;;;;;5.38;1.45;;;33.80;82.30;;;;;;4159598;28;20092;-69
2021/08/18 03:49:58;;;;;;;4.20;1.52;;;33.70;82.30;;;;;;4161492;28;20105;-68
2021/08/18 03:52:07;;;;;;;4.05;2.10;;;33.50;84.00;;;;;;4163445;28;20385;-69
2021/08/18 03:54:11;;;;;;;8.40;2.38;;;33.40;85.30;;;;;;4159787;28;20100;-69
2021/08/18 03:56:17;;;;;;;3.58;2.22;;;33.40;85.80;;;;;;4155567;28;20061;-68
2021/08/18 03:58:21;;;;;;;3.50;2.22;;;33.40;86.40;;;;;;4158970;28;20208;-70
2021/08/18 04:00:26;;;;;;;3.45;1.95;;;33.50;87.00;;;;;;4160978;28;20038;-68
2021/08/18 04:02:30;;;;;;;4.30;2.03;;;33.70;86.50;;;;;;4158883;28;20089;-68
2021/08/18 04:04:35;;;;;;;12.38;2.55;;;33.70;86.90;;;;;;4139839;28;20540;-67
2021/08/18 04:06:40;;;;;;;7.68;2.75;;;33.60;86.90;;;;;;4158730;28;20113;-67
2021/08/18 04:08:45;;;;;;;7.43;2.10;;;33.60;87.40;;;;;;4177875;28;20045;-68
2021/08/18 04:10:49;;;;;;;4.25;2.00;;;33.50;87.70;;;;;;4153506;28;20045;-69
2021/08/18 04:12:55;;;;;;;4.03;2.20;;;33.50;87.90;;;;;;4160169;28;20056;-68
2021/08/18 04:15:00;;;;;;;4.80;2.10;;;33.70;87.30;;;;;;4158899;28;20042;-68
2021/08/18 04:17:05;;;;;;;3.58;1.95;;;33.90;87.00;;;;;;4157303;28;20050;-68
2021/08/18 04:19:09;;;;;;;3.28;1.77;;;34.00;86.10;;;;;;4156102;28;20049;-67
2021/08/18 04:21:13;;;;;;;6.22;1.92;;;34.10;85.30;;;;;;4154483;28;20164;-68
2021/08/18 04:23:18;;;;;;;3.03;1.50;;;34.10;84.50;;;;;;4156606;28;20038;-65
2021/08/18 04:25:22;;;;;;;3.20;1.83;;;34.20;84.40;;;;;;4158428;28;20049;-68
2021/08/18 04:27:27;;;;;;;5.15;1.95;;;34.20;85.00;;;;;;4159358;28;20046;-67
2021/08/18 04:29:32;;;;;;;7.57;1.55;;;34.30;83.90;;;;;;4161872;28;20053;-69
2021/08/18 04:31:36;;;;;;;2.85;1.60;;;34.40;83.60;;;;;;4174928;28;20049;-69
2021/08/18 04:33:41;;;;;;;2.92;1.70;;;34.40;83.30;;;;;;4165876;28;20511;-67
2021/08/18 04:35:45;;;;;;;2.83;1.80;;;34.40;83.10;;;;;;4163453;28;20694;-69
2021/08/18 04:37:50;;;;;;;3.42;1.77;;;34.40;84.20;;;;;;4154935;28;20042;-67
2021/08/18 04:39:55;;;;;;;4.25;1.58;;;34.50;83.60;;;;;;4161740;28;20059;-68
2021/08/18 04:41:59;;;;;;;4.05;1.80;;;34.50;83.20;;;;;;4161367;28;20463;-68
2021/08/18 04:44:04;;;;;;;6.38;1.65;;;34.50;83.60;;;;;;4162598;28;20041;-69
2021/08/18 04:46:08;;;;;;;3.10;1.80;;;34.50;83.50;;;;;;4161775;28;20125;-68
2021/08/18 04:48:13;;;;;;;3.25;1.48;;;34.60;83.50;;;;;;4162597;28;20037;-68
2021/08/18 04:50:18;;;;;;;4.18;1.73;;;34.60;83.60;;;;;;4162187;28;20092;-69
2021/08/18 04:52:22;;;;;;;4.35;1.90;;;34.60;84.80;;;;;;4161807;28;20045;-67
2021/08/18 04:54:27;;;;;;;5.03;1.80;;;34.60;84.20;;;;;;4152179;28;20046;-67
2021/08/18 04:56:31;;;;;;;4.88;1.65;;;34.70;84.00;;;;;;4154899;28;20463;-68
2021/08/18 04:58:37;;;;;;;5.00;1.38;;;34.60;84.00;;;;;;4156729;28;20129;-69
2021/08/18 05:00:41;;;;;;;2.85;1.83;;;34.50;83.30;;;;;;4138021;28;20058;-68
2021/08/18 05:02:52;;;;;;;3.95;1.88;;;34.50;83.40;;;;;;4156079;28;20072;-69
2021/08/18 05:05:00;;;;;;;4.38;1.60;;;34.60;82.80;;;;;;4161361;28;20033;-67
2021/08/18 05:07:07;;;;;;;7.30;1.63;;;34.40;82.00;;;;;;4156192;28;20037;-67
2021/08/18 05:09:11;;;;;;;4.43;1.48;;;34.40;81.10;;;;;;4154913;28;20037;-69
2021/08/18 05:11:16;;;;;;;3.08;1.55;;;34.30;82.20;;;;;;4155491;28;20080;-69
2021/08/18 05:13:20;;;;;;;4.00;1.75;;;34.30;82.60;;;;;;4157970;28;20049;-67
2021/08/18 05:15:26;;;;;;;2.33;1.50;;;34.20;81.20;;;;;;4139099;28;20586;-69
2021/08/18 05:17:31;;;;;;;6.63;1.90;;;34.50;81.70;;;;;;4154557;28;20050;-68
2021/08/18 05:19:36;;;;;;;5.88;1.52;;;34.60;81.00;;;;;;4153569;28;20042;-68
2021/08/18 05:21:40;;;;;;;3.97;1.98;;;34.70;81.70;;;;;;4153369;28;20065;-69
2021/08/18 05:23:45;;;;;;;3.88;1.52;;;34.80;80.50;;;;;;4157501;28;20566;-69
2021/08/18 05:25:50;;;;;;;2.78;1.45;;;34.80;81.20;;;;;;4157022;28;20043;-68
2021/08/18 05:27:54;;;;;;;4.28;1.70;;;34.80;82.40;;;;;;4162172;28;20053;-69
2021/08/18 05:30:00;;;;;;;2.95;1.50;;;34.80;81.40;;;;;;4164093;28;20056;-68
2021/08/18 05:32:08;;;;;;;17.60;5.40;;;34.70;81.80;;;;;;4160516;28;20045;-68
2021/08/18 05:34:13;;;;;;;14.65;4.10;;;34.80;80.50;;;;;;4155758;28;20041;-67
2021/08/18 05:36:17;;;;;;;24.50;7.15;;;35.00;81.00;;;;;;4161424;28;20570;-68
2021/08/18 05:38:24;;;;;;;17.67;5.80;;;35.00;80.70;;;;;;4156302;28;20504;-69
2021/08/18 05:40:30;;;;;;;13.18;4.53;;;35.10;80.40;;;;;;4155318;28;20464;-69
2021/08/18 05:42:35;;;;;;;10.75;3.17;;;35.00;79.60;;;;;;4159130;28;20044;-68
2021/08/18 05:44:40;;;;;;;8.23;2.50;;;35.00;79.90;;;;;;4161218;28;20034;-68
2021/08/18 05:46:44;;;;;;;5.60;1.98;;;35.10;79.90;;;;;;4156619;28;20389;-68
2021/08/18 05:48:49;;;;;;;3.78;2.03;;;35.20;79.40;;;;;;4163312;28;20393;-69
2021/08/18 05:50:55;;;;;;;3.83;1.70;;;35.20;79.90;;;;;;4160577;28;20054;-70
2021/08/18 05:52:59;;;;;;;3.50;1.80;;;35.10;80.60;;;;;;4162853;28;20439;-68
2021/08/18 05:55:05;;;;;;;4.15;1.70;;;35.10;81.00;;;;;;4164642;28;20037;-69
2021/08/18 05:57:10;;;;;;;2.60;1.50;;;35.00;80.00;;;;;;4158359;28;20499;-69
2021/08/18 05:59:15;;;;;;;3.42;1.60;;;34.90;79.70;;;;;;4174893;28;20051;-69
2021/08/18 06:01:19;;;;;;;4.03;1.63;;;35.00;80.00;;;;;;4166342;28;20037;-68
2021/08/18 06:03:24;;;;;;;3.38;1.38;;;35.10;79.90;;;;;;4164674;28;20037;-71
2021/08/18 06:05:32;;;;;;;2.63;1.33;;;35.20;79.20;;;;;;4165063;28;20065;-70
2021/08/18 06:07:36;;;;;;;2.50;1.65;;;35.30;79.40;;;;;;4149191;28;20068;-69
2021/08/18 06:09:41;;;;;;;2.55;1.40;;;35.40;78.30;;;;;;4161201;28;20037;-68
2021/08/18 06:11:47;;;;;;;4.85;1.40;;;35.50;77.50;;;;;;4173510;28;20042;-77
2021/08/18 06:13:57;;;;;;;3.55;1.30;;;35.60;75.90;;;;;;4162524;28;20054;-76
2021/08/18 06:16:02;;;;;;;2.30;1.45;;;35.70;75.70;;;;;;4166996;28;20076;-74
2021/08/18 06:18:15;;;;;;;3.53;1.42;;;35.90;76.00;;;;;;4162080;28;20148;-69
2021/08/18 06:20:22;;;;;;;2.13;1.23;;;35.90;75.00;;;;;;4157220;28;20038;-71
2021/08/18 06:22:27;;;;;;;2.10;1.30;;;36.00;75.00;;;;;;4157601;28;20046;-71
2021/08/18 06:26:59;;;;;;;5.05;1.35;;;35.90;74.50;;;;;;4161337;28;20084;-73
2021/08/18 06:29:20;;;;;;;2.85;1.25;;;36.00;74.30;;;;;;4158576;28;20041;-70
2021/08/18 06:31:31;;;;;;;2.42;1.55;;;35.90;73.40;;;;;;4145590;28;20050;-72
2021/08/18 06:33:36;;;;;;;4.07;1.50;;;36.00;73.30;;;;;;4156744;28;20095;-69
2021/08/18 06:35:42;;;;;;;2.65;1.38;;;35.90;74.00;;;;;;4153567;28;20041;-69
2021/08/18 06:37:48;;;;;;;2.88;1.40;;;35.70;75.10;;;;;;4157429;28;20095;-71
2021/08/18 06:39:53;;;;;;;3.67;1.70;;;35.60;75.00;;;;;;4163398;28;20520;-69
2021/08/18 06:41:58;;;;;;;3.45;1.50;;;35.70;74.80;;;;;;4159091;28;20042;-69
2021/08/18 06:44:08;;;;;;;2.70;1.23;;;35.60;74.80;;;;;;4163556;28;20508;-68
2021/08/18 06:46:13;;;;;;;2.70;1.40;;;35.70;73.40;;;;;;4155811;28;20060;-68
2021/08/18 06:48:20;;;;;;;3.15;1.50;;;35.70;73.90;;;;;;4158922;28;20041;-70
2021/08/18 06:50:24;;;;;;;1.90;1.20;;;35.90;71.60;;;;;;4155926;28;20103;-68
2021/08/18 06:52:30;;;;;;;3.42;1.45;;;36.10;72.10;;;;;;4160036;28;20465;-69
2021/08/18 06:54:35;;;;;;;3.13;1.60;;;36.20;72.50;;;;;;4156369;28;20042;-67
2021/08/18 06:56:39;;;;;;;2.65;1.90;;;36.00;72.80;;;;;;4154729;28;20042;-71
2021/08/18 06:58:44;;;;;;;6.47;1.73;;;35.80;73.80;;;;;;4157832;28;20049;-68
2021/08/18 07:00:48;;;;;;;3.65;1.58;;;35.70;74.80;;;;;;4157273;28;20042;-68
2021/08/18 07:02:53;;;;;;;3.20;1.63;;;35.80;74.00;;;;;;4160836;28;20084;-69
2021/08/18 07:04:58;;;;;;;5.45;1.80;;;35.90;74.40;;;;;;4156003;28;20103;-70
2021/08/18 07:07:03;;;;;;;3.28;1.52;;;36.00;74.20;;;;;;4137825;28;20069;-68
2021/08/18 07:09:07;;;;;;;2.90;1.30;;;36.00;73.10;;;;;;4129323;28;20093;-68
2021/08/18 07:11:11;;;;;;;2.75;1.20;;;36.10;73.40;;;;;;4145809;28;20069;-68
2021/08/18 07:13:16;;;;;;;2.47;1.88;;;36.00;72.50;;;;;;4129445;28;20058;-68
2021/08/18 07:15:21;;;;;;;2.65;1.50;;;35.80;73.80;;;;;;4146815;28;20108;-68
2021/08/18 07:17:25;;;;;;;3.58;1.40;;;35.70;74.80;;;;;;4150041;28;20052;-69
2021/08/18 07:19:30;;;;;;;3.90;1.80;;;35.90;74.80;;;;;;4150367;28;20042;-69
2021/08/18 07:21:34;;;;;;;4.38;1.50;;;36.10;74.10;;;;;;4147029;28;20131;-70
2021/08/18 07:23:39;;;;;;;3.90;1.33;;;36.00;72.90;;;;;;4149024;28;20497;-70
2021/08/18 07:25:44;;;;;;;2.30;1.30;;;35.90;73.20;;;;;;4134966;28;20069;-70
2021/08/18 07:27:49;;;;;;;2.85;1.40;;;36.10;72.10;;;;;;4147631;28;20049;-70
2021/08/18 07:29:54;;;;;;;2.25;1.30;;;36.10;71.90;;;;;;4147620;28;20061;-68
2021/08/18 07:32:01;;;;;;;3.22;1.38;;;36.20;71.40;;;;;;4148194;28;20065;-69
2021/08/18 07:34:06;;;;;;;2.65;1.30;;;36.10;71.00;;;;;;4116746;28;20085;-69
2021/08/18 07:36:10;;;;;;;3.95;1.20;;;35.90;71.60;;;;;;4148717;28;20038;-68
2021/08/18 07:38:15;;;;;;;4.40;1.40;;;35.80;72.30;;;;;;4151073;28;20053;-67
2021/08/18 07:40:22;;;;;;;6.20;1.42;;;35.60;73.10;;;;;;4163398;28;20049;-69
2021/08/18 07:42:27;;;;;;;4.97;1.55;;;35.70;73.40;;;;;;4158699;28;20045;-68
2021/08/18 07:44:31;;;;;;;7.60;1.90;;;35.90;72.60;;;;;;4173959;28;20080;-68
2021/08/18 07:46:36;;;;;;;1.80;1.20;;;35.80;72.70;;;;;;4158600;28;20042;-67
2021/08/18 07:48:40;;;;;;;4.97;1.35;;;35.90;72.20;;;;;;4156370;28;20298;-68
2021/08/18 07:50:45;;;;;;;4.25;1.45;;;36.00;72.00;;;;;;4162420;28;20056;-67
2021/08/18 07:52:50;;;;;;;2.58;1.33;;;36.10;71.80;;;;;;4158905;28;20068;-67
2021/08/18 07:54:55;;;;;;;2.58;1.15;;;36.20;70.90;;;;;;4158360;28;20192;-67
2021/08/18 07:57:00;;;;;;;3.60;1.23;;;36.20;69.90;;;;;;4158896;28;20046;-68
2021/08/18 07:59:05;;;;;;;1.75;1.10;;;36.20;70.80;;;;;;4161585;28;20577;-68
2021/08/18 08:01:11;;;;;;;2.00;1.17;;;36.00;71.80;;;;;;4160109;28;20065;-68
2021/08/18 08:03:16;;;;;;;5.50;1.40;;;35.90;72.10;;;;;;4158388;28;20080;-68
2021/08/18 08:05:20;;;;;;;6.20;1.30;;;35.90;71.80;;;;;;4157450;28;20087;-69
2021/08/18 08:07:25;;;;;;;3.58;1.40;;;35.80;71.20;;;;;;4160572;28;20109;-69
2021/08/18 08:09:30;;;;;;;3.05;1.40;;;35.70;71.50;;;;;;4160923;28;20056;-67
2021/08/18 08:11:35;;;;;;;4.80;1.20;;;35.90;71.10;;;;;;4158317;28;20046;-67
2021/08/18 08:13:39;;;;;;;2.47;1.20;;;36.00;70.30;;;;;;4157024;28;20547;-68
2021/08/18 08:15:44;;;;;;;3.22;1.60;;;36.10;70.30;;;;;;4157548;28;20033;-67
2021/08/18 08:17:49;;;;;;;2.35;1.35;;;36.10;70.90;;;;;;4160740;28;20476;-67
2021/08/18 08:19:54;;;;;;;2.33;1.40;;;36.10;69.40;;;;;;4159109;28;20042;-69
2021/08/18 08:21:59;;;;;;;4.03;1.40;;;36.10;69.70;;;;;;4163144;28;20042;-69
2021/08/18 08:24:03;;;;;;;3.25;1.52;;;36.10;70.20;;;;;;4159838;28;20460;-69
2021/08/18 08:26:08;;;;;;;2.25;1.00;;;36.10;70.00;;;;;;4162073;28;20033;-68
2021/08/18 08:28:13;;;;;;;2.28;1.45;;;36.10;69.80;;;;;;4154880;28;20060;-69
2021/08/18 08:30:17;;;;;;;2.17;1.02;;;36.10;69.70;;;;;;4180054;28;20587;-70
2021/08/18 08:32:22;;;;;;;1.73;1.05;;;36.10;70.20;;;;;;4157118;28;20044;-68
2021/08/18 08:34:27;;;;;;;1.85;0.93;;;36.20;70.50;;;;;;4158767;28;20129;-67
2021/08/18 08:36:31;;;;;;;2.03;1.10;;;36.20;70.60;;;;;;4163179;28;20073;-69
2021/08/18 08:38:36;;;;;;;2.53;1.10;;;36.20;69.40;;;;;;4159325;28;20046;-68
2021/08/18 08:40:43;;;;;;;1.95;1.08;;;36.10;70.00;;;;;;4159898;28;20054;-70
2021/08/18 08:42:47;;;;;;;2.53;1.02;;;35.90;70.50;;;;;;4159521;28;20116;-69
2021/08/18 08:44:53;;;;;;;1.55;1.00;;;35.90;71.20;;;;;;4159434;28;20124;-69
2021/08/18 08:46:57;;;;;;;2.55;1.30;;;35.90;71.30;;;;;;4157369;28;20048;-70
2021/08/18 08:49:04;;;;;;;1.98;0.98;;;35.80;70.50;;;;;;4164278;28;20120;-68
2021/08/18 08:51:08;;;;;;;3.92;1.10;;;35.80;70.30;;;;;;4158287;28;20045;-70
2021/08/18 08:53:15;;;;;;;1.95;1.00;;;35.80;70.90;;;;;;4162152;28;20046;-69
2021/08/18 08:55:20;;;;;;;3.28;1.38;;;35.70;71.20;;;;;;4164372;28;20061;-69
2021/08/18 08:57:25;;;;;;;2.95;1.55;;;35.80;70.80;;;;;;4182013;28;20444;-68
2021/08/18 08:59:29;;;;;;;5.57;1.95;;;35.90;70.60;;;;;;4171571;28;20049;-68
2021/08/18 09:02:06;;;;;;;4.65;2.35;;;35.90;70.60;;;;;;4175892;28;20042;-69
2021/08/18 09:04:27;;;;;;;1.75;1.35;;;35.70;70.80;;;;;;4154528;28;20045;-69
2021/08/18 09:06:33;;;;;;;3.17;1.80;;;35.60;71.20;;;;;;4140038;28;20108;-70
2021/08/18 09:08:48;;;;;;;4.50;2.35;;;35.60;71.80;;;;;;4157241;28;20049;-68
2021/08/18 09:11:08;;;;;;;5.00;2.30;;;35.50;71.70;;;;;;4151308;28;20444;-68
2021/08/18 09:13:16;;;;;;;5.72;2.00;;;35.50;71.80;;;;;;4154012;28;20053;-68
2021/08/18 09:15:23;;;;;;;2.33;1.30;;;35.60;70.30;;;;;;4157262;28;20143;-68
2021/08/18 09:17:39;;;;;;;3.90;0.93;;;35.60;70.20;;;;;;4155258;28;20054;-68
2021/08/18 09:19:43;;;;;;;1.50;0.80;;;35.70;69.40;;;;;;4153401;28;20053;-68
2021/08/18 09:21:48;;;;;;;2.08;1.00;;;35.70;69.50;;;;;;4139308;28;20042;-71
2021/08/18 09:23:55;;;;;;;3.13;1.23;;;35.70;70.10;;;;;;4130972;28;20063;-68
2021/08/18 09:26:00;;;;;;;2.53;1.05;;;35.70;70.10;;;;;;4131694;28;20159;-70
2021/08/18 09:28:04;;;;;;;2.20;1.08;;;35.70;70.30;;;;;;4151581;28;20038;-68
2021/08/18 09:30:26;;;;;;;4.95;1.35;;;35.70;70.90;;;;;;4159260;28;20059;-68
2021/08/18 09:32:33;;;;;;;2.65;1.38;;;35.70;71.40;;;;;;4146640;28;20508;-68
2021/08/18 09:34:53;;;;;;;2.47;1.10;;;35.80;71.90;;;;;;4144527;28;20054;-68
2021/08/18 09:37:10;;;;;;;2.92;1.10;;;35.80;73.10;;;;;;4155647;28;20372;-67
2021/08/18 09:39:21;;;;;;;3.20;1.60;;;35.80;72.90;;;;;;4133010;28;20596;-67
2021/08/18 09:41:30;;;;;;;4.93;1.83;;;35.80;73.20;;;;;;4164560;28;20047;-69
2021/08/18 09:43:35;;;;;;;2.60;1.13;;;35.80;73.50;;;;;;4185907;28;20048;-69
2021/08/18 09:45:41;;;;;;;2.50;1.15;;;35.80;74.20;;;;;;4185607;28;20079;-69
2021/08/18 09:47:54;;;;;;;1.83;1.20;;;35.80;74.50;;;;;;4193960;28;20033;-68
2021/08/18 09:49:59;;;;;;;4.38;1.35;;;35.70;74.40;;;;;;4170077;28;20041;-68
2021/08/18 09:52:04;;;;;;;4.65;1.50;;;35.70;74.50;;;;;;4190156;28;20079;-69
2021/08/18 09:54:15;;;;;;;1.95;1.00;;;35.70;74.50;;;;;;4194264;28;20101;-68
2021/08/18 09:56:19;;;;;;;3.72;1.38;;;35.70;74.00;;;;;;4172084;28;20068;-68
2021/08/18 09:58:41;;;;;;;4.30;1.45;;;35.70;73.70;;;;;;4194193;28;20041;-70
2021/08/18 10:00:45;;;;;;;2.80;1.25;;;35.70;73.90;;;;;;4161541;28;20049;-70
2021/08/18 10:02:50;;;;;;;3.10;1.63;;;35.70;74.20;;;;;;4164606;28;20042;-68
2021/08/18 10:04:58;;;;;;;4.03;1.65;;;35.70;74.00;;;;;;4147499;28;20101;-69
2021/08/18 10:07:03;;;;;;;5.57;2.17;;;35.60;74.10;;;;;;4167753;28;20120;-67
2021/08/18 10:09:08;;;;;;;6.38;2.95;;;35.60;73.80;;;;;;4151317;28;20052;-69
2021/08/18 10:11:14;;;;;;;18.77;4.22;;;35.60;74.10;;;;;;4152762;28;20575;-68
2021/08/18 10:13:19;;;;;;;4.63;3.03;;;35.50;74.10;;;;;;4167468;28;20088;-69
2021/08/18 10:15:23;;;;;;;6.28;2.92;;;35.50;74.40;;;;;;4167691;28;20133;-67
2021/08/18 10:17:30;;;;;;;6.70;2.42;;;35.50;74.60;;;;;;4165645;28;20053;-69
2021/08/18 10:19:34;;;;;;;3.00;2.00;;;35.40;74.60;;;;;;4169660;28;20105;-69
2021/08/18 10:21:39;;;;;;;4.55;1.70;;;35.50;75.00;;;;;;4171433;28;20107;-69
2021/08/18 10:23:51;;;;;;;4.45;1.75;;;35.40;75.10;;;;;;4154802;28;20041;-69
2021/08/18 10:25:55;;;;;;;2.95;1.60;;;35.50;75.90;;;;;;4173169;28;20041;-68
2021/08/18 10:28:00;;;;;;;3.83;1.90;;;35.40;74.90;;;;;;4170155;28;20040;-70
2021/08/18 10:30:22;;;;;;;3.28;1.63;;;35.40;75.30;;;;;;4152841;28;20064;-68
2021/08/18 10:32:31;;;;;;;2.75;1.63;;;35.40;75.20;;;;;;4168711;28;20114;-68
2021/08/18 10:34:43;;;;;;;2.47;1.30;;;35.30;74.70;;;;;;4151987;28;20060;-68
2021/08/18 10:36:51;;;;;;;3.70;1.65;;;35.30;74.90;;;;;;4167516;28;20131;-69
2021/08/18 10:38:55;;;;;;;3.38;1.48;;;35.30;74.20;;;;;;4172235;28;20065;-68
2021/08/18 10:41:04;;;;;;;3.90;1.60;;;35.20;74.20;;;;;;4154848;28;20069;-68
2021/08/18 10:43:08;;;;;;;2.83;1.70;;;35.10;74.20;;;;;;4159317;28;20152;-68
2021/08/18 10:45:23;;;;;;;2.83;1.70;;;35.10;75.00;;;;;;4160324;28;20103;-69
2021/08/18 10:47:30;;;;;;;2.80;1.50;;;35.10;74.70;;;;;;4158278;28;20050;-67
2021/08/18 10:49:41;;;;;;;4.78;1.40;;;35.00;74.80;;;;;;4156925;28;20447;-67
2021/08/18 10:51:52;;;;;;;5.28;2.00;;;35.00;74.70;;;;;;4160701;28;20049;-69
2021/08/18 10:53:57;;;;;;;2.95;1.70;;;35.00;74.80;;;;;;4157798;28;20049;-68
2021/08/18 10:56:33;;;;;;;10.80;3.80;;;35.00;74.90;;;;;;4156379;28;20405;-68